Time;durP1;ratioP1;P1;durP2;ratioP2;P2;SDS_P1;SDS_P2;PMS_P1;PMS_P2;Temp;Humidity;BMP_temperature;BMP_pressure;BME280_temperature;BME280_humidity;BME280_pressure;Samples;Min_cycle;Max_cycle;Signal;HPM_P1;HPM_P2
2022/06/10 00:00:25;;;;;;;9.23;1.30;;;19.40;94.70;;;;;;4958412;28;20187;-82
2022/06/10 00:02:51;;;;;;;7.43;2.07;;;19.50;94.70;;;;;;4958443;28;20215;-83
2022/06/10 00:05:20;;;;;;;9.43;2.07;;;19.50;94.80;;;;;;4958181;28;20174;-83
2022/06/10 00:07:46;;;;;;;9.60;2.00;;;19.40;95.10;;;;;;4957681;28;20178;-83
2022/06/10 00:10:14;;;;;;;6.37;1.80;;;19.40;95.10;;;;;;4959880;28;20202;-83
2022/06/10 00:12:40;;;;;;;9.50;1.70;;;19.40;95.30;;;;;;4957591;28;20174;-83
2022/06/10 00:15:07;;;;;;;10.87;1.73;;;19.40;95.40;;;;;;4957413;28;20186;-82
2022/06/10 00:17:33;;;;;;;3.70;1.33;;;19.40;95.30;;;;;;4977165;28;20176;-82
2022/06/10 00:19:59;;;;;;;14.23;1.80;;;19.50;95.30;;;;;;4976661;28;20233;-83
2022/06/10 00:22:25;;;;;;;5.80;1.60;;;19.50;95.30;;;;;;4970083;28;20258;-82
2022/06/10 00:24:52;;;;;;;11.37;1.77;;;19.60;95.00;;;;;;4957566;28;20246;-83
2022/06/10 00:27:19;;;;;;;6.90;1.53;;;19.50;95.00;;;;;;4957755;28;20186;-82
2022/06/10 00:29:45;;;;;;;11.30;1.80;;;19.40;95.30;;;;;;4974760;28;20242;-83
2022/06/10 00:32:11;;;;;;;11.37;1.80;;;19.40;95.40;;;;;;4977233;28;20205;-82
2022/06/10 00:34:37;;;;;;;7.37;1.50;;;19.30;95.60;;;;;;4993862;28;20258;-83
2022/06/10 00:37:04;;;;;;;10.67;1.60;;;19.20;96.00;;;;;;4976617;28;20186;-82
2022/06/10 00:39:30;;;;;;;9.33;1.77;;;19.30;95.80;;;;;;4976147;28;20213;-82
2022/06/10 00:41:56;;;;;;;9.90;1.83;;;19.30;95.90;;;;;;4976322;28;20651;-82
2022/06/10 00:44:41;;;;;;;5.97;1.63;;;19.20;96.10;;;;;;4976330;28;20565;-81
2022/06/10 00:47:35;;;;;;;7.47;1.57;;;19.20;96.20;;;;;;4993953;28;20201;-82
2022/06/10 00:50:08;;;;;;;11.40;1.77;;;19.20;96.40;;;;;;4993348;28;20260;-83
2022/06/10 00:52:42;;;;;;;5.87;1.90;;;19.20;96.40;;;;;;4967375;28;20636;-82
2022/06/10 00:55:08;;;;;;;12.37;2.20;;;19.20;96.40;;;;;;4956747;28;20542;-83
2022/06/10 00:57:42;;;;;;;7.40;1.67;;;19.30;96.30;;;;;;4957121;28;20179;-82
2022/06/10 01:00:17;;;;;;;6.13;1.57;;;19.40;96.40;;;;;;4962112;28;20185;-82
2022/06/10 01:02:44;;;;;;;8.40;1.80;;;19.20;96.60;;;;;;4975883;28;20190;-82
2022/06/10 01:05:19;;;;;;;6.50;1.37;;;19.10;97.00;;;;;;4993472;28;20549;-82
2022/06/10 01:08:06;;;;;;;9.03;1.80;;;19.10;97.20;;;;;;4980477;28;20227;-82
2022/06/10 01:10:50;;;;;;;10.20;2.60;;;19.20;96.90;;;;;;4973709;28;20664;-82
2022/06/10 01:13:18;;;;;;;6.13;2.03;;;19.20;97.20;;;;;;4976313;28;20203;-82
2022/06/10 01:15:47;;;;;;;11.50;2.20;;;19.20;97.20;;;;;;4965037;28;20187;-82
2022/06/10 01:18:36;;;;;;;8.13;1.70;;;19.30;97.30;;;;;;4956627;28;20663;-81
2022/06/10 01:21:23;;;;;;;11.77;2.17;;;19.30;97.30;;;;;;4971088;28;20238;-83
2022/06/10 01:24:00;;;;;;;7.93;1.67;;;19.30;97.40;;;;;;4976075;28;20204;-82
2022/06/10 01:29:50;;;;;;;10.10;1.73;;;19.40;97.70;;;;;;4973964;28;20257;-83
2022/06/10 01:32:46;;;;;;;5.63;1.47;;;19.20;97.90;;;;;;4956685;28;20198;-82
2022/06/10 01:35:24;;;;;;;11.13;2.10;;;19.30;97.90;;;;;;4957547;28;20572;-82
2022/06/10 01:37:56;;;;;;;9.33;1.57;;;19.20;97.90;;;;;;4964744;28;20179;-83
2022/06/10 01:40:47;;;;;;;6.57;1.70;;;19.20;98.00;;;;;;4975003;28;20185;-83
2022/06/10 01:43:16;;;;;;;9.33;2.10;;;19.10;98.00;;;;;;4975524;28;20178;-83
2022/06/10 01:45:57;;;;;;;6.87;1.77;;;19.10;98.20;;;;;;4973779;28;20698;-82
2022/06/10 01:48:34;;;;;;;7.93;1.83;;;19.10;98.30;;;;;;4975655;28;20188;-83
2022/06/10 01:51:21;;;;;;;10.27;2.03;;;19.30;98.10;;;;;;4975626;28;20347;-83
2022/06/10 01:54:13;;;;;;;8.40;2.33;;;19.10;98.30;;;;;;4975621;28;20256;-83
2022/06/10 01:56:44;;;;;;;8.67;2.00;;;19.10;98.40;;;;;;4964052;28;20198;-83
2022/06/10 01:59:29;;;;;;;6.70;1.67;;;19.00;98.60;;;;;;4967202;28;20650;-83
2022/06/10 02:02:18;;;;;;;10.33;2.40;;;19.00;98.70;;;;;;4975558;28;20201;-83
2022/06/10 02:04:53;;;;;;;14.93;2.63;;;19.00;98.90;;;;;;4975903;28;20202;-82
2022/06/10 02:07:24;;;;;;;11.47;2.67;;;19.00;98.80;;;;;;4976915;28;20681;-82
2022/06/10 02:09:55;;;;;;;9.63;2.40;;;19.20;98.50;;;;;;4956149;28;20205;-83
2022/06/10 02:12:35;;;;;;;8.47;2.93;;;19.30;98.30;;;;;;4956382;28;20250;-83
2022/06/10 02:15:06;;;;;;;11.30;3.60;;;19.30;98.50;;;;;;4956343;28;20635;-82
2022/06/10 02:17:38;;;;;;;11.50;2.93;;;19.10;98.70;;;;;;4971264;28;20190;-82
2022/06/10 02:20:05;;;;;;;10.10;3.13;;;19.00;99.00;;;;;;4978103;28;20642;-82
2022/06/10 02:22:41;;;;;;;12.77;3.00;;;18.70;99.60;;;;;;4978915;28;20189;-82
2022/06/10 02:25:22;;;;;;;9.90;3.43;;;18.60;99.90;;;;;;4995444;28;20208;-83
2022/06/10 02:27:59;;;;;;;9.20;3.73;;;18.50;99.90;;;;;;4959861;28;20232;-82
2022/06/10 02:31:05;;;;;;;10.10;3.60;;;18.60;99.90;;;;;;4959690;28;20234;-83
2022/06/10 02:33:31;;;;;;;13.70;4.60;;;18.90;99.90;;;;;;4919930;29;20224;-83
2022/06/10 02:36:14;;;;;;;13.10;4.40;;;18.80;99.80;;;;;;4926046;29;20179;-82
2022/06/10 02:38:49;;;;;;;14.97;4.53;;;18.80;99.90;;;;;;4951155;28;20215;-82
2022/06/10 02:41:35;;;;;;;10.33;4.13;;;18.80;99.90;;;;;;4959468;28;20239;-83
2022/06/10 02:44:30;;;;;;;13.90;3.43;;;18.80;99.90;;;;;;4959442;28;20269;-82
2022/06/10 02:47:17;;;;;;;8.40;2.83;;;18.80;99.90;;;;;;4971579;28;20273;-83
2022/06/10 02:49:42;;;;;;;9.77;3.53;;;18.80;99.90;;;;;;4996090;28;20205;-83
2022/06/10 02:52:13;;;;;;;11.10;3.33;;;18.80;99.90;;;;;;4978505;28;20182;-81
2022/06/10 02:54:40;;;;;;;10.77;3.30;;;18.70;99.90;;;;;;4978596;28;20269;-83
2022/06/10 03:01:11;;;;;;;14.73;5.97;;;18.80;99.90;;;;;;4964799;28;20253;-84
2022/06/10 03:03:11;;;;;;;18.63;7.47;;;18.90;99.90;;;;;;4976851;28;20199;-83
2022/06/10 03:06:07;;;;;;;17.60;6.93;;;18.90;99.90;;;;;;4959358;28;20280;-82
2022/06/10 03:08:44;;;;;;;16.30;6.20;;;18.80;99.90;;;;;;4978211;28;20188;-83
2022/06/10 03:11:30;;;;;;;12.87;5.37;;;18.80;99.90;;;;;;4978377;28;20301;-83
2022/06/10 03:14:11;;;;;;;17.67;5.57;;;19.00;99.90;;;;;;4978410;28;20216;-82
2022/06/10 03:16:58;;;;;;;10.87;4.53;;;18.90;99.90;;;;;;4966740;28;20202;-82
2022/06/10 03:19:49;;;;;;;13.67;4.30;;;19.10;99.90;;;;;;4958885;28;20273;-81
2022/06/10 03:22:20;;;;;;;10.50;3.60;;;19.10;99.90;;;;;;4958755;28;20635;-83
2022/06/10 03:25:15;;;;;;;10.87;3.00;;;19.20;99.90;;;;;;4958707;28;20555;-82
2022/06/10 03:28:04;;;;;;;8.83;2.50;;;19.00;99.90;;;;;;4993716;28;20241;-82
2022/06/10 03:31:05;;;;;;;8.87;2.47;;;19.00;99.90;;;;;;4977130;28;20250;-83
2022/06/10 03:33:37;;;;;;;7.63;2.63;;;19.00;99.90;;;;;;4955343;28;20682;-83
2022/06/10 03:36:11;;;;;;;6.87;1.50;;;19.00;99.90;;;;;;4960069;28;20180;-83
2022/06/10 03:38:45;;;;;;;5.33;1.60;;;19.10;99.90;;;;;;4969657;28;20217;-82
2022/06/10 03:41:32;;;;;;;6.63;1.80;;;19.30;99.90;;;;;;4975937;28;20174;-82
2022/06/10 03:44:01;;;;;;;5.60;1.20;;;19.50;99.90;;;;;;4957838;28;20321;-83
2022/06/10 03:46:30;;;;;;;7.73;1.53;;;19.40;99.90;;;;;;4958480;28;20181;-84
2022/06/10 03:48:57;;;;;;;8.00;1.73;;;19.40;99.90;;;;;;4975578;28;20577;-83
2022/06/10 03:51:22;;;;;;;4.87;1.10;;;19.40;99.90;;;;;;4958109;28;20263;-82
2022/06/10 03:53:49;;;;;;;8.27;1.53;;;19.30;99.90;;;;;;4964310;28;20178;-82
2022/06/10 03:56:21;;;;;;;9.97;1.93;;;19.20;99.90;;;;;;4994992;28;20184;-82
2022/06/10 03:58:49;;;;;;;7.93;1.40;;;19.20;99.90;;;;;;4977234;28;20236;-83
2022/06/10 04:01:15;;;;;;;5.87;1.53;;;19.10;99.90;;;;;;4977452;28;20215;-83
2022/06/10 04:03:41;;;;;;;5.07;1.30;;;19.10;99.90;;;;;;4977167;28;20694;-82
2022/06/10 04:06:06;;;;;;;5.43;1.70;;;19.10;99.90;;;;;;4992291;28;20767;-82
2022/06/10 04:08:32;;;;;;;5.33;1.43;;;19.10;99.90;;;;;;4958023;28;20170;-83
2022/06/10 04:10:58;;;;;;;5.13;1.40;;;19.10;99.90;;;;;;4957972;28;20218;-83
2022/06/10 04:13:23;;;;;;;7.30;1.50;;;19.10;99.90;;;;;;4957880;28;20265;-83
2022/06/10 04:15:49;;;;;;;8.47;1.93;;;19.20;99.90;;;;;;4970519;28;20181;-82
2022/06/10 04:18:15;;;;;;;5.03;1.80;;;19.20;99.90;;;;;;4973857;28;20198;-84
2022/06/10 04:20:41;;;;;;;5.57;1.33;;;19.10;99.90;;;;;;4957256;28;20636;-82
2022/06/10 04:23:07;;;;;;;7.03;1.90;;;19.10;99.90;;;;;;4957782;28;20181;-83
2022/06/10 04:25:34;;;;;;;6.93;1.63;;;19.10;99.90;;;;;;4957562;28;20198;-83
2022/06/10 04:28:01;;;;;;;5.97;1.47;;;19.20;99.90;;;;;;4957053;28;20179;-83
2022/06/10 04:30:31;;;;;;;8.50;1.47;;;19.30;99.90;;;;;;4961292;28;20210;-82
2022/06/10 04:32:57;;;;;;;6.00;1.73;;;19.30;99.90;;;;;;4989894;28;20202;-82
2022/06/10 04:35:24;;;;;;;5.43;1.00;;;19.30;99.90;;;;;;4957409;28;20208;-83
2022/06/10 04:37:50;;;;;;;7.60;1.70;;;19.20;99.90;;;;;;4974537;28;20171;-82
2022/06/10 04:40:18;;;;;;;3.00;0.90;;;19.20;99.90;;;;;;4974546;28;20173;-83
2022/06/10 04:42:46;;;;;;;3.73;1.10;;;19.30;99.90;;;;;;4956571;28;20245;-83
2022/06/10 04:45:12;;;;;;;7.93;1.43;;;19.30;99.90;;;;;;4984785;28;20212;-83
2022/06/10 04:47:38;;;;;;;9.40;1.43;;;19.30;99.90;;;;;;4993966;28;20182;-82
2022/06/10 04:50:05;;;;;;;6.20;1.23;;;19.30;99.90;;;;;;4976226;28;20208;-83
2022/06/10 04:52:31;;;;;;;6.60;1.50;;;19.30;99.90;;;;;;4976525;28;20188;-83
2022/06/10 04:54:57;;;;;;;4.37;1.20;;;19.30;99.90;;;;;;4976402;28;20182;-82
2022/06/10 04:57:22;;;;;;;5.70;1.43;;;19.30;99.90;;;;;;4976088;28;20193;-83
2022/06/10 04:59:48;;;;;;;11.17;1.60;;;19.30;99.90;;;;;;4976090;28;20179;-83
2022/06/10 05:02:14;;;;;;;4.93;0.93;;;19.30;99.90;;;;;;4960980;28;20601;-82
2022/06/10 05:04:40;;;;;;;7.17;1.17;;;19.30;99.90;;;;;;4956849;28;20176;-82
2022/06/10 05:07:06;;;;;;;6.30;1.40;;;19.40;99.90;;;;;;4962006;28;20186;-82
2022/06/10 05:09:31;;;;;;;5.60;1.70;;;19.30;99.90;;;;;;4966557;28;20619;-84
2022/06/10 05:11:57;;;;;;;4.97;1.17;;;19.30;99.90;;;;;;4964824;28;20200;-82
2022/06/10 05:14:22;;;;;;;8.87;1.33;;;19.20;99.90;;;;;;4972148;28;20179;-81
2022/06/10 05:16:48;;;;;;;5.90;1.17;;;19.20;99.90;;;;;;4968649;28;20182;-83
2022/06/10 05:19:14;;;;;;;9.17;1.83;;;19.20;99.90;;;;;;4975565;28;20207;-82
2022/06/10 05:21:39;;;;;;;4.67;1.00;;;19.20;99.90;;;;;;4975976;28;20184;-82
2022/06/10 05:24:05;;;;;;;6.30;1.20;;;19.30;99.90;;;;;;4975893;28;20184;-82
2022/06/10 05:26:32;;;;;;;5.07;0.80;;;19.40;99.90;;;;;;4984630;28;20631;-83
2022/06/10 05:28:59;;;;;;;7.23;1.40;;;19.50;99.90;;;;;;4972205;28;20609;-85
2022/06/10 05:31:24;;;;;;;6.03;1.73;;;19.50;99.90;;;;;;4956379;28;20626;-83
2022/06/10 05:36:34;;;;;;;7.53;1.07;;;19.50;99.90;;;;;;4993159;28;20300;-83
2022/06/10 05:39:32;;;;;;;6.47;1.80;;;19.50;99.90;;;;;;4974412;28;20698;-96
2022/06/10 05:42:06;;;;;;;4.37;1.10;;;19.50;99.90;;;;;;4972307;28;20284;-89
2022/06/10 05:44:52;;;;;;;8.80;1.17;;;19.50;99.90;;;;;;4977023;28;20312;-88
2022/06/10 05:47:28;;;;;;;8.07;1.13;;;19.60;99.90;;;;;;4974894;28;20181;-88
2022/06/10 05:49:58;;;;;;;7.97;1.73;;;19.50;99.90;;;;;;4957973;28;20420;-88
2022/06/10 05:52:28;;;;;;;4.20;1.10;;;19.50;99.90;;;;;;4956934;28;20184;-90
2022/06/10 05:54:56;;;;;;;6.67;1.37;;;19.60;99.90;;;;;;4959028;28;20253;-89
2022/06/10 05:57:22;;;;;;;9.03;1.53;;;19.60;99.90;;;;;;4992009;28;20183;-89
2022/06/10 05:59:49;;;;;;;3.33;1.40;;;19.70;99.90;;;;;;4999692;28;20605;-89
2022/06/10 06:02:15;;;;;;;9.87;1.60;;;19.80;99.80;;;;;;4999399;28;20208;-89
2022/06/10 06:04:42;;;;;;;7.53;1.43;;;19.90;99.70;;;;;;4977941;28;20179;-89
2022/06/10 06:07:08;;;;;;;6.13;1.20;;;19.90;99.60;;;;;;4979219;28;20192;-89
2022/06/10 06:09:34;;;;;;;6.23;1.20;;;19.80;99.90;;;;;;4977870;28;20473;-90
2022/06/10 06:12:01;;;;;;;11.00;1.50;;;19.50;99.90;;;;;;4980356;28;20190;-90
2022/06/10 06:14:28;;;;;;;9.70;1.83;;;19.40;99.90;;;;;;4965801;28;20178;-90
2022/06/10 06:16:56;;;;;;;8.67;1.90;;;19.50;99.90;;;;;;4959920;28;20221;-92
2022/06/10 06:19:24;;;;;;;9.83;2.30;;;19.60;99.90;;;;;;4964174;28;20203;-90
2022/06/10 06:21:50;;;;;;;11.80;1.50;;;19.70;99.90;;;;;;4972822;28;20183;-89
2022/06/10 06:24:16;;;;;;;6.77;1.57;;;19.60;99.90;;;;;;4959967;28;20188;-89
2022/06/10 06:26:44;;;;;;;9.73;2.13;;;19.70;99.90;;;;;;4961440;28;20181;-90
2022/06/10 06:29:21;;;;;;;8.13;1.57;;;19.80;99.90;;;;;;4979436;28;20266;-94
2022/06/10 06:49:34;;;;;;;11.03;1.70;;;20.10;99.90;;;;;;4977630;28;20273;-90
2022/06/10 06:52:00;;;;;;;9.73;2.20;;;20.00;99.90;;;;;;4997425;28;20303;-90
2022/06/10 06:54:25;;;;;;;10.07;2.10;;;20.10;99.90;;;;;;4998309;28;20254;-90
2022/06/10 06:56:51;;;;;;;10.50;2.17;;;20.20;99.90;;;;;;4998533;28;20179;-90
2022/06/10 06:59:17;;;;;;;12.30;1.70;;;20.30;99.90;;;;;;4998373;28;20209;-90
2022/06/10 07:01:43;;;;;;;9.60;1.60;;;20.40;99.90;;;;;;4998814;28;20540;-89
2022/06/10 07:04:09;;;;;;;4.93;1.77;;;20.30;99.90;;;;;;4998168;28;20179;-90
2022/06/10 07:06:35;;;;;;;5.57;1.60;;;20.20;99.90;;;;;;4998261;28;20238;-90
2022/06/10 07:09:05;;;;;;;10.43;2.10;;;20.00;99.90;;;;;;4997597;28;20176;-89
2022/06/10 07:11:32;;;;;;;10.93;1.90;;;20.20;99.90;;;;;;5017566;28;20232;-90
2022/06/10 07:13:58;;;;;;;8.33;2.10;;;20.10;99.90;;;;;;5017737;28;20212;-89
2022/06/10 07:16:24;;;;;;;9.17;2.50;;;20.00;99.90;;;;;;5017879;28;20205;-90
2022/06/10 07:18:52;;;;;;;5.17;1.73;;;20.00;99.90;;;;;;5017370;28;20550;-84
2022/06/10 07:21:17;;;;;;;9.70;2.03;;;20.10;99.90;;;;;;5016811;28;20198;-84
2022/06/10 07:23:43;;;;;;;10.10;2.50;;;20.00;99.90;;;;;;5017098;28;20187;-84
2022/06/10 07:26:09;;;;;;;7.73;2.10;;;20.00;99.90;;;;;;5016297;28;20619;-83
2022/06/10 07:28:36;;;;;;;8.10;2.30;;;19.90;99.90;;;;;;5016591;28;20175;-84
2022/06/10 07:31:02;;;;;;;10.73;2.50;;;20.10;99.90;;;;;;5017228;28;20647;-84
2022/06/10 07:33:28;;;;;;;9.63;2.47;;;20.10;99.90;;;;;;5013488;28;20218;-84
2022/06/10 07:35:54;;;;;;;9.83;2.83;;;20.30;99.90;;;;;;4996665;28;20278;-84
2022/06/10 07:38:20;;;;;;;10.97;2.70;;;20.60;99.90;;;;;;4996879;28;20168;-84
2022/06/10 07:43:32;;;;;;;8.10;2.03;;;20.40;99.90;;;;;;5014362;28;20215;-84
2022/06/10 07:45:59;;;;;;;11.53;2.70;;;20.10;99.90;;;;;;4997107;28;20224;-84
2022/06/10 07:48:25;;;;;;;10.93;2.60;;;20.30;99.90;;;;;;4997130;28;20168;-84
2022/06/10 07:50:51;;;;;;;10.17;2.20;;;20.40;99.90;;;;;;4997173;28;20224;-84
2022/06/10 07:53:18;;;;;;;8.20;2.03;;;20.40;99.90;;;;;;4997297;28;20175;-84
2022/06/10 07:55:44;;;;;;;7.17;2.20;;;20.60;99.90;;;;;;4997350;28;20210;-84
2022/06/10 07:58:12;;;;;;;7.00;2.00;;;20.60;99.90;;;;;;4997256;28;20554;-84
2022/06/10 08:00:38;;;;;;;12.27;2.40;;;20.50;99.90;;;;;;4997169;28;20359;-84
2022/06/10 08:03:05;;;;;;;6.43;2.60;;;20.50;99.90;;;;;;4997316;28;20223;-84
2022/06/10 08:05:32;;;;;;;7.07;2.27;;;20.50;99.90;;;;;;4996912;28;20182;-85
2022/06/10 08:08:01;;;;;;;7.10;2.40;;;20.60;99.90;;;;;;4997229;28;20228;-84
2022/06/10 08:10:31;;;;;;;7.30;2.30;;;20.70;99.90;;;;;;4996910;28;20215;-84
2022/06/10 08:12:56;;;;;;;10.17;2.70;;;20.90;99.90;;;;;;4996973;28;20190;-84
2022/06/10 08:15:23;;;;;;;7.60;2.03;;;21.10;99.90;;;;;;4997052;28;20246;-84
2022/06/10 08:17:50;;;;;;;9.10;2.73;;;21.20;99.90;;;;;;4995813;28;20198;-84
2022/06/10 08:23:15;;;;;;;8.17;2.60;;;21.50;99.90;;;;;;5015064;28;20178;-84
2022/06/10 08:25:41;;;;;;;10.33;2.50;;;21.30;99.90;;;;;;4996811;28;20547;-84
2022/06/10 08:28:07;;;;;;;9.83;2.73;;;21.20;99.90;;;;;;4996825;28;20270;-84
2022/06/10 08:30:33;;;;;;;10.83;2.60;;;21.40;99.90;;;;;;4996397;28;20634;-84
2022/06/10 08:33:03;;;;;;;12.80;2.47;;;21.50;99.90;;;;;;4997054;28;20168;-84
2022/06/10 08:35:32;;;;;;;12.70;3.20;;;21.50;99.90;;;;;;4996326;28;20212;-84
2022/06/10 08:37:59;;;;;;;10.13;2.47;;;21.40;99.90;;;;;;4996581;28;20176;-84
2022/06/10 08:40:46;;;;;;;13.07;3.30;;;21.30;99.90;;;;;;4996136;28;20177;-84
2022/06/10 08:43:40;;;;;;;11.60;2.87;;;21.10;99.90;;;;;;5013831;28;20211;-84
2022/06/10 08:46:09;;;;;;;9.13;3.17;;;21.10;99.90;;;;;;4988809;28;20179;-84
2022/06/10 08:49:09;;;;;;;8.73;2.87;;;21.20;99.90;;;;;;4996062;28;20206;-84
2022/06/10 11:43:43;;;;;;;9.97;3.27;;;27.10;93.00;;;;;;5112240;23;20239;-88
2022/06/10 11:46:20;;;;;;;8.37;3.13;;;26.50;93.60;;;;;;4997610;28;20177;-93
2022/06/10 11:49:05;;;;;;;9.27;2.90;;;26.20;94.00;;;;;;4995921;28;20641;-93
2022/06/10 11:51:44;;;;;;;6.50;3.07;;;25.60;94.50;;;;;;4978381;28;20224;-93
2022/06/10 11:54:47;;;;;;;7.63;3.30;;;25.10;95.10;;;;;;4978344;28;20192;-94
2022/06/10 12:00:15;;;;;;;9.60;2.87;;;24.60;95.80;;;;;;4995587;28;20177;-93
2022/06/10 12:02:56;;;;;;;12.20;2.53;;;25.20;95.90;;;;;;4995808;28;20195;-91
2022/06/10 12:05:37;;;;;;;7.67;2.50;;;26.10;94.90;;;;;;4978422;28;20200;-91
2022/06/10 12:08:32;;;;;;;5.37;2.07;;;26.20;94.00;;;;;;4978116;28;20645;-93
2022/06/10 12:11:20;;;;;;;8.93;2.37;;;25.90;94.00;;;;;;4968543;28;20673;-92
2022/06/10 12:13:56;;;;;;;6.43;2.50;;;25.90;94.30;;;;;;5012849;28;20216;-92
2022/06/10 12:16:23;;;;;;;6.33;2.20;;;26.00;93.90;;;;;;4997383;28;20192;-91
2022/06/10 12:18:51;;;;;;;5.10;1.37;;;26.20;94.00;;;;;;4997618;28;20180;-93
2022/06/10 12:21:23;;;;;;;7.60;1.83;;;26.80;93.80;;;;;;4997420;28;20184;-93
2022/06/10 12:23:49;;;;;;;8.47;2.47;;;27.20;93.00;;;;;;4997434;28;20181;-94
2022/06/10 12:26:43;;;;;;;8.90;2.20;;;27.40;92.90;;;;;;4997117;28;20184;-93
2022/06/10 12:29:12;;;;;;;5.33;1.87;;;27.50;92.60;;;;;;4979135;28;20654;-93
2022/06/10 12:31:47;;;;;;;7.40;1.80;;;27.70;92.20;;;;;;4977498;28;20449;-92
2022/06/10 12:34:36;;;;;;;2.67;1.50;;;28.20;91.90;;;;;;4977792;28;20223;-92
2022/06/10 12:37:06;;;;;;;6.50;1.87;;;28.50;91.40;;;;;;4978163;28;20236;-93
2022/06/10 12:39:54;;;;;;;5.33;1.83;;;28.30;91.40;;;;;;4977752;28;20189;-94
2022/06/10 12:42:39;;;;;;;8.73;1.90;;;28.00;91.50;;;;;;4977416;28;20204;-92
2022/06/10 12:45:14;;;;;;;4.53;1.40;;;28.00;92.10;;;;;;4977487;28;20647;-94
2022/06/10 12:47:41;;;;;;;5.00;1.60;;;28.00;91.50;;;;;;4977568;28;20177;-92
2022/06/10 12:50:29;;;;;;;5.77;1.53;;;27.50;91.90;;;;;;4977170;28;20213;-91
2022/06/10 12:53:12;;;;;;;6.50;1.33;;;27.00;92.40;;;;;;4994821;28;20173;-93
2022/06/10 12:55:50;;;;;;;6.67;1.63;;;26.30;93.20;;;;;;4977399;28;20179;-93
2022/06/10 12:58:39;;;;;;;3.53;1.50;;;25.80;93.50;;;;;;4976990;28;20184;-93
2022/06/10 13:01:18;;;;;;;8.47;1.50;;;25.70;93.80;;;;;;4977239;28;20183;-94
2022/06/10 13:03:46;;;;;;;4.67;1.60;;;25.50;94.10;;;;;;4980781;28;20173;-94
2022/06/10 16:15:17;;;;;;;4.67;1.37;;;26.10;93.80;;;;;;5012597;28;20286;-85
2022/06/10 16:17:44;;;;;;;2.37;1.10;;;26.20;94.00;;;;;;4996691;28;20506;-85
2022/06/10 16:20:12;;;;;;;4.73;1.50;;;26.20;94.00;;;;;;4997398;28;20715;-86
2022/06/10 16:22:38;;;;;;;2.00;1.10;;;25.80;93.90;;;;;;4996608;28;20178;-88
2022/06/10 16:25:09;;;;;;;5.07;1.40;;;25.60;94.20;;;;;;4993658;28;20185;-88
2022/06/10 16:27:36;;;;;;;3.83;1.33;;;25.50;94.50;;;;;;4994491;28;20174;-86
2022/06/10 16:58:46;;;;;;;5.47;1.77;;;24.80;94.50;;;;;;5315945;23;20237;-87
2022/06/10 17:01:18;;;;;;;5.90;1.73;;;24.70;94.80;;;;;;4977239;28;20182;-88
2022/06/10 17:03:45;;;;;;;2.80;1.20;;;24.80;94.80;;;;;;4977291;28;20189;-89
2022/06/10 17:06:12;;;;;;;4.37;1.10;;;24.70;94.70;;;;;;4976616;28;20521;-88
2022/06/10 17:08:39;;;;;;;3.20;1.37;;;24.80;94.70;;;;;;4976986;28;20555;-89
2022/06/10 17:11:12;;;;;;;6.57;1.17;;;24.70;94.80;;;;;;4993897;28;20206;-89
2022/06/10 17:13:38;;;;;;;6.57;1.50;;;24.50;95.10;;;;;;4976870;28;20182;-88
2022/06/10 17:16:17;;;;;;;3.57;1.30;;;24.60;95.20;;;;;;4993994;28;20174;-88
2022/06/10 17:18:43;;;;;;;3.57;1.60;;;24.60;95.10;;;;;;4976686;28;20268;-87
2022/06/10 17:21:09;;;;;;;4.30;1.80;;;24.70;95.00;;;;;;4976629;28;20610;-88
2022/06/10 17:23:34;;;;;;;4.03;1.67;;;24.70;95.00;;;;;;4976933;28;20178;-88
2022/06/10 17:26:38;;;;;;;5.73;1.70;;;24.60;95.30;;;;;;4976882;28;20181;-88
2022/06/10 17:29:16;;;;;;;6.30;1.47;;;24.50;95.40;;;;;;4976999;28;20201;-88
2022/06/10 17:31:42;;;;;;;4.07;1.33;;;24.30;95.80;;;;;;4980869;28;20724;-88
2022/06/10 17:34:09;;;;;;;6.03;1.60;;;24.30;95.90;;;;;;4982365;28;20197;-88
2022/06/10 17:36:35;;;;;;;5.70;1.97;;;24.40;95.40;;;;;;4976757;28;20178;-88
2022/06/10 17:39:01;;;;;;;7.23;1.60;;;24.30;95.40;;;;;;4976903;28;20182;-88
2022/06/10 17:41:38;;;;;;;8.03;1.47;;;24.30;95.30;;;;;;4976959;28;20635;-89
2022/06/10 17:44:19;;;;;;;4.50;1.70;;;24.20;95.60;;;;;;4974016;28;20186;-85
2022/06/10 17:46:51;;;;;;;7.10;1.50;;;24.20;95.60;;;;;;4977060;28;20334;-89
2022/06/10 17:49:35;;;;;;;4.13;1.43;;;24.40;95.50;;;;;;4977884;28;20185;-84
2022/06/10 17:52:11;;;;;;;6.00;1.40;;;24.40;95.50;;;;;;4980002;28;20225;-85
2022/06/10 17:54:38;;;;;;;4.10;1.27;;;24.50;95.50;;;;;;4980061;28;20178;-84
2022/06/10 17:57:39;;;;;;;3.43;1.70;;;24.60;95.40;;;;;;4979614;28;20221;-85
2022/06/10 18:00:34;;;;;;;7.20;1.80;;;24.50;95.40;;;;;;4979668;28;20188;-84
2022/06/10 18:03:16;;;;;;;5.43;1.70;;;24.30;95.60;;;;;;4979957;28;20232;-88
2022/06/10 18:05:45;;;;;;;5.17;1.77;;;24.30;95.70;;;;;;4997476;28;20643;-85
2022/06/10 18:08:15;;;;;;;5.93;1.77;;;24.40;95.70;;;;;;4997620;28;20654;-89
2022/06/10 18:10:43;;;;;;;3.50;1.20;;;24.50;95.60;;;;;;4980246;28;20552;-89
2022/06/10 18:16:02;;;;;;;4.60;1.70;;;24.20;95.70;;;;;;4997785;28;20193;-89
2022/06/10 18:18:32;;;;;;;4.07;1.60;;;24.00;96.30;;;;;;4980295;28;20245;-89
2022/06/10 18:20:58;;;;;;;3.67;1.60;;;23.80;96.70;;;;;;4980275;28;20182;-89
2022/06/10 18:23:28;;;;;;;5.33;1.63;;;23.70;97.30;;;;;;4980313;28;20189;-88
2022/06/10 18:25:56;;;;;;;7.40;2.10;;;23.70;97.00;;;;;;4980371;28;20248;-87
2022/06/10 18:28:23;;;;;;;3.87;1.50;;;23.80;97.00;;;;;;4979733;28;20717;-89
2022/06/10 18:30:52;;;;;;;6.80;2.07;;;23.90;97.20;;;;;;4978906;28;20248;-85
2022/06/10 18:33:21;;;;;;;4.93;2.10;;;23.80;97.30;;;;;;4976745;28;20214;-87
2022/06/10 18:35:48;;;;;;;5.63;1.60;;;23.60;97.80;;;;;;4979982;28;20185;-87
2022/06/10 18:38:15;;;;;;;8.97;1.90;;;23.60;98.30;;;;;;4971953;28;20186;-85
2022/06/10 18:40:42;;;;;;;6.40;2.00;;;23.60;98.20;;;;;;4959814;28;20183;-85
2022/06/10 18:45:51;;;;;;;5.53;1.80;;;23.70;98.20;;;;;;5015177;28;20199;-84
2022/06/10 18:48:28;;;;;;;5.93;2.33;;;23.50;98.50;;;;;;4998623;28;20181;-84
2022/06/10 18:50:56;;;;;;;8.83;2.30;;;23.40;98.80;;;;;;4986951;28;20568;-85
2022/06/10 18:53:22;;;;;;;9.50;2.37;;;23.50;98.60;;;;;;4979057;28;20714;-86
2022/06/10 18:55:49;;;;;;;3.93;1.67;;;23.50;99.00;;;;;;4979122;28;20170;-87
2022/06/10 18:58:15;;;;;;;4.23;1.40;;;23.40;98.60;;;;;;4979492;28;20201;-85
2022/06/10 19:00:45;;;;;;;5.07;2.10;;;23.20;98.60;;;;;;4977443;28;20224;-85
2022/06/10 19:03:20;;;;;;;4.90;1.83;;;23.30;98.90;;;;;;4974010;28;20714;-86
2022/06/10 19:05:46;;;;;;;4.37;1.73;;;23.40;98.90;;;;;;4979183;28;20646;-85
2022/06/10 19:08:12;;;;;;;5.93;2.00;;;23.30;98.90;;;;;;4977494;28;20185;-85
2022/06/10 19:10:39;;;;;;;8.60;1.77;;;23.20;99.10;;;;;;4978167;28;20205;-86
2022/06/10 19:13:06;;;;;;;6.97;2.20;;;23.20;99.30;;;;;;4978302;28;20227;-85
2022/06/10 19:15:35;;;;;;;6.80;2.27;;;23.20;99.20;;;;;;4978555;28;20213;-86
2022/06/10 19:18:01;;;;;;;9.43;2.00;;;23.20;99.40;;;;;;4979052;28;20280;-89
2022/06/10 19:20:37;;;;;;;6.90;2.87;;;23.30;99.20;;;;;;4982934;28;20182;-87
2022/06/10 19:23:14;;;;;;;6.17;2.20;;;23.40;98.90;;;;;;4994161;28;20224;-85
2022/06/10 19:25:45;;;;;;;5.93;2.00;;;23.50;98.70;;;;;;4975584;28;20242;-85
2022/06/10 19:28:37;;;;;;;8.73;1.97;;;23.60;98.70;;;;;;4978134;28;20234;-86
2022/06/10 19:31:12;;;;;;;6.73;2.30;;;23.60;98.70;;;;;;4977013;28;20559;-86
2022/06/10 19:33:43;;;;;;;8.13;2.43;;;23.60;98.70;;;;;;4978337;28;20205;-85
2022/06/10 19:36:35;;;;;;;8.47;2.50;;;23.40;99.20;;;;;;4978470;28;20182;-84
2022/06/10 19:39:05;;;;;;;7.90;2.60;;;23.30;99.30;;;;;;4973103;28;20214;-84
2022/06/10 19:41:31;;;;;;;4.20;2.10;;;23.30;99.70;;;;;;4995209;28;20193;-85
2022/06/10 19:46:42;;;;;;;7.77;2.40;;;23.20;99.70;;;;;;4995640;28;20238;-85
2022/06/10 19:49:18;;;;;;;3.97;1.90;;;23.10;99.80;;;;;;4995502;28;20645;-85
2022/06/10 19:51:44;;;;;;;7.50;2.30;;;23.00;99.90;;;;;;4993763;28;20210;-85
2022/06/10 19:54:11;;;;;;;6.27;2.23;;;23.00;99.90;;;;;;4995094;28;20232;-85
2022/06/10 19:56:38;;;;;;;7.63;2.70;;;23.00;99.90;;;;;;4994714;28;20581;-85
2022/06/10 19:59:05;;;;;;;6.67;2.90;;;23.10;99.90;;;;;;4977743;28;20654;-85
2022/06/10 20:01:36;;;;;;;5.27;2.30;;;23.10;99.90;;;;;;4976829;28;20548;-86
2022/06/10 20:04:21;;;;;;;7.53;2.60;;;23.10;99.90;;;;;;4977551;28;20182;-85
2022/06/10 20:06:52;;;;;;;8.20;2.40;;;23.20;99.90;;;;;;4977363;28;20185;-85
2022/06/10 20:09:23;;;;;;;7.43;2.13;;;23.10;99.90;;;;;;4977049;28;20192;-85
2022/06/10 20:11:48;;;;;;;7.13;2.80;;;23.00;99.90;;;;;;4971688;28;20653;-86
2022/06/10 20:14:14;;;;;;;6.13;2.67;;;23.00;99.90;;;;;;4976146;28;20277;-89
2022/06/10 20:16:40;;;;;;;7.27;3.07;;;22.90;99.90;;;;;;4973933;28;20186;-85
2022/06/10 20:19:09;;;;;;;7.43;2.60;;;22.90;99.90;;;;;;4974008;28;20562;-88
2022/06/10 20:21:35;;;;;;;10.00;2.43;;;22.90;99.90;;;;;;4973874;28;20177;-85
2022/06/10 20:24:01;;;;;;;6.23;2.93;;;22.90;99.90;;;;;;4974487;28;20236;-86